| time (UTC) | temp F | wind direction | speed MPH | gust MPH | rain 1hr in | rain 24hr in | rain mn in | humidity % | barometer mb |
| 20260904074003 | 59 | 152 | 0.0 | 2.0 | 0.02 | 0.68 | 0.62 | 99 | 1008.7 |
| 20260904073003 | 59 | 117 | 0.0 | 1.0 | 0.02 | 0.68 | 0.62 | 99 | 1009.0 |
| 20260904072003 | 59 | 151 | 0.0 | 1.0 | 0.03 | 0.68 | 0.62 | 99 | 1009.0 |
| 20260904071003 | 59 | 121 | 0.0 | 2.0 | 0.04 | 0.68 | 0.62 | 99 | 1009.4 |
| 20260904070003 | 59 | 165 | 0.0 | 2.0 | 0.04 | 0.68 | 0.62 | 99 | 1009.4 |
| 20260904065213 | 59 | 151 | 1.0 | 3.0 | 0.04 | 0.67 | 0.61 | 99 | 1009.4 |
| 20260904064003 | 59 | 168 | 1.0 | 3.0 | 0.03 | 0.66 | 0.60 | 99 | 1009.7 |
| 20260904063004 | 59 | 182 | 1.0 | 6.0 | 0.03 | 0.66 | 0.60 | 99 | 1009.7 |
| 20260904062003 | 59 | 131 | 2.0 | 6.0 | 0.02 | 0.65 | 0.59 | 99 | 1010.1 |
| 20260904061213 | 60 | 152 | 1.0 | 4.0 | 0.01 | 0.64 | 0.59 | 99 | 1010.4 |
| 20260904060004 | 60 | 134 | 1.0 | 4.0 | 0.04 | 0.64 | 0.58 | 99 | 1010.4 |
| 20260904055003 | 60 | 195 | 1.0 | 2.0 | 0.05 | 0.63 | 0.57 | 99 | 1010.4 |
| 20260904054003 | 60 | 196 | 1.0 | 3.0 | 0.07 | 0.63 | 0.57 | 99 | 1010.7 |
| 20260904053003 | 60 | 170 | 0.0 | 3.0 | 0.10 | 0.63 | 0.57 | 99 | 1010.7 |
| 20260904052003 | 60 | 174 | 0.0 | 3.0 | 0.14 | 0.63 | 0.57 | 99 | 1011.1 |
| 20260904051003 | 60 | 145 | 1.0 | 4.0 | 0.18 | 0.62 | 0.56 | 99 | 1011.1 |
| 20260904050004 | 60 | 193 | 1.0 | 4.0 | 0.21 | 0.60 | 0.54 | 99 | 1011.4 |
| 20260904045003 | 60 | 158 | 1.0 | 2.0 | 0.25 | 0.58 | 0.52 | 98 | 1011.4 |
| 20260904044003 | 60 | 180 | 1.0 | 2.0 | 0.28 | 0.56 | 0.50 | 98 | 1011.4 |
| 20260904043003 | 60 | 221 | 0.0 | 2.0 | 0.33 | 0.53 | 0.47 | 98 | 1011.8 |
| 20260904042003 | 60 | 201 | 1.0 | 3.0 | 0.37 | 0.49 | 0.43 | 98 | 1012.1 |
| 20260904041003 | 60 | 149 | 0.0 | 4.0 | 0.35 | 0.44 | 0.38 | 98 | 1012.1 |
| 20260904040214 | 60 | 199 | 1.0 | 3.0 | 0.33 | 0.40 | 0.34 | 98 | 1012.1 |
| 20260904035003 | 61 | 167 | 1.0 | 3.0 | 0.28 | 0.33 | 0.27 | 98 | 1012.4 |
| 20260904034003 | 60 | 124 | 0.0 | 1.0 | 0.24 | 0.28 | 0.22 | 98 | 1012.4 |
| 20260904033003 | 61 | 230 | 0.0 | 2.0 | 0.17 | 0.20 | 0.14 | 98 | 1012.8 |
| 20260904032003 | 61 | 171 | 0.0 | 1.0 | 0.10 | 0.12 | 0.06 | 97 | 1012.4 |
| 20260904031214 | 61 | 213 | 0.0 | 2.0 | 0.07 | 0.09 | 0.04 | 97 | 1012.4 |
| 20260904030003 | 61 | 61 | 0.0 | 2.0 | 0.05 | 0.06 | 0.00 | 97 | 1012.8 |
| 20260904025003 | 61 | 92 | 0.0 | 2.0 | 0.04 | 0.05 | 0.05 | 97 | 1012.4 |
| 20260904024003 | 61 | 91 | 0.0 | 2.0 | 0.03 | 0.04 | 0.04 | 96 | 1012.8 |
| 20260904023003 | 61 | 233 | 0.0 | 1.0 | 0.02 | 0.03 | 0.03 | 96 | 1013.1 |
| 20260904022003 | 61 | 214 | 0.0 | 1.0 | 0.01 | 0.02 | 0.02 | 95 | 1013.1 |
| 20260904021003 | 61 | 312 | 0.0 | 1.0 | 0.01 | 0.02 | 0.02 | 94 | 1013.1 |
| 20260904020004 | 62 | 213 | 0.0 | 1.0 | 0.00 | 0.01 | 0.01 | 93 | 1013.5 |
| 20260904015213 | 62 | 107 | 0.0 | 2.0 | 0.00 | 0.01 | 0.01 | 92 | 1013.1 |
| 20260904014003 | 62 | 293 | 0.0 | 3.0 | 0.00 | 0.01 | 0.01 | 90 | 1013.5 |
| 20260904013003 | 62 | 7 | 0.0 | 4.0 | 0.00 | 0.01 | 0.01 | 89 | 1013.8 |
| 20260904012003 | 62 | 306 | 0.0 | 2.0 | 0.00 | 0.01 | 0.01 | 89 | 1013.8 |
| 20260904011213 | 62 | 269 | 0.0 | 2.0 | 0.00 | 0.01 | 0.01 | 89 | 1013.5 |
| 20260904010003 | 62 | 320 | 0.0 | 1.0 | 0.00 | 0.01 | 0.01 | 89 | 1013.8 |
| 20260904005003 | 62 | 252 | 0.0 | 2.0 | 0.00 | 0.01 | 0.01 | 88 | 1014.1 |
| 20260904004003 | 62 | 49 | 0.0 | 1.0 | 0.00 | 0.01 | 0.01 | 88 | 1014.1 |
| 20260904003003 | 63 | 247 | 0.0 | 1.0 | 0.00 | 0.01 | 0.01 | 88 | 1014.1 |
| 20260904002003 | 63 | 193 | 0.0 | 2.0 | 0.00 | 0.01 | 0.01 | 87 | 1014.1 |
| 20260904001003 | 63 | 211 | 0.0 | 3.0 | 0.00 | 0.01 | 0.01 | 88 | 1014.1 |
| 20260904000003 | 63 | 269 | 0.0 | 2.0 | 0.00 | 0.01 | 0.01 | 87 | 1014.5 |
| 20260903235213 | 63 | 216 | 0.0 | 2.0 | 0.00 | 0.01 | 0.01 | 86 | 1014.5 |
| 20260903234003 | 63 | 196 | 0.0 | 3.0 | 0.00 | 0.01 | 0.01 | 86 | 1014.5 |
| 20260903233003 | 63 | 213 | 1.0 | 2.0 | 0.00 | 0.01 | 0.01 | 85 | 1014.5 |
| 20260903232003 | 63 | 216 | 0.0 | 2.0 | 0.00 | 0.01 | 0.01 | 86 | 1014.8 |
| 20260903231212 | 63 | 225 | 0.0 | 2.0 | 0.00 | 0.01 | 0.01 | 86 | 1014.8 |
| 20260903230212 | 63 | 220 | 0.0 | 2.0 | 0.00 | 0.01 | 0.01 | 85 | 1014.8 |
| 20260903225003 | 63 | 181 | 1.0 | 4.0 | 0.00 | 0.01 | 0.01 | 84 | 1014.8 |
| 20260903224003 | 63 | 239 | 0.0 | 3.0 | 0.00 | 0.01 | 0.01 | 84 | 1014.8 |
| 20260903223003 | 63 | 208 | 0.0 | 2.0 | 0.00 | 0.01 | 0.01 | 84 | 1015.2 |
| 20260903222003 | 63 | 203 | 0.0 | 2.0 | 0.00 | 0.01 | 0.01 | 84 | 1015.2 |
| 20260903221003 | 63 | 197 | 1.0 | 4.0 | 0.00 | 0.01 | 0.01 | 83 | 1015.2 |
| 20260903220214 | 63 | 204 | 1.0 | 3.0 | 0.01 | 0.01 | 0.01 | 83 | 1015.2 |
| 20260903215003 | 63 | 193 | 0.0 | 2.0 | 0.01 | 0.01 | 0.01 | 84 | 1015.2 |
| 20260903214003 | 63 | 225 | 0.0 | 2.0 | 0.01 | 0.01 | 0.01 | 84 | 1014.8 |
| 20260903213214 | 63 | 232 | 0.0 | 2.0 | 0.01 | 0.01 | 0.01 | 84 | 1015.5 |
| 20260903212004 | 63 | 199 | 0.0 | 2.0 | 0.01 | 0.01 | 0.01 | 84 | 1015.2 |
| 20260903211003 | 64 | 236 | 0.0 | 3.0 | 0.01 | 0.01 | 0.01 | 83 | 1015.5 |
| 20260903210003 | 64 | 176 | 0.0 | 2.0 | 0.00 | 0.00 | 0.00 | 80 | 1015.8 |
| 20260903205003 | 65 | 216 | 0.0 | 2.0 | 0.00 | 0.00 | 0.00 | 81 | 1015.5 |
| 20260903204003 | 65 | 193 | 1.0 | 4.0 | 0.00 | 0.00 | 0.00 | 80 | 1015.8 |
| 20260903203004 | 65 | 215 | 0.0 | 2.0 | 0.00 | 0.00 | 0.00 | 82 | 1015.8 |
| 20260903202003 | 65 | 211 | 0.0 | 3.0 | 0.00 | 0.00 | 0.00 | 83 | 1015.8 |
| 20260903201003 | 65 | 200 | 0.0 | 1.0 | 0.00 | 0.00 | 0.00 | 82 | 1015.8 |
| 20260903200003 | 65 | 212 | 1.0 | 4.0 | 0.00 | 0.00 | 0.00 | 81 | 1015.8 |
| 20260903195003 | 65 | 213 | 0.0 | 3.0 | 0.00 | 0.00 | 0.00 | 82 | 1016.2 |
| 20260903194003 | 65 | 187 | 1.0 | 7.0 | 0.00 | 0.00 | 0.00 | 81 | 1016.2 |
| 20260903193003 | 66 | 223 | 1.0 | 3.0 | 0.00 | 0.00 | 0.00 | 78 | 1016.5 |
| 20260903192003 | 67 | 211 | 1.0 | 4.0 | 0.00 | 0.00 | 0.00 | 74 | 1016.5 |
| 20260903191003 | 67 | 204 | 0.0 | 2.0 | 0.00 | 0.00 | 0.00 | 74 | 1016.5 |
| 20260903190003 | 67 | 196 | 1.0 | 3.0 | 0.00 | 0.00 | 0.00 | 74 | 1016.9 |
| 20260903185003 | 67 | 180 | 1.0 | 3.0 | 0.00 | 0.00 | 0.00 | 72 | 1016.9 |
| 20260903184213 | 67 | 188 | 1.0 | 2.0 | 0.00 | 0.00 | 0.00 | 72 | 1016.5 |
| 20260903183003 | 67 | 186 | 0.0 | 1.0 | 0.00 | 0.00 | 0.00 | 74 | 1017.2 |
| 20260903182003 | 68 | 206 | 1.0 | 3.0 | 0.00 | 0.00 | 0.00 | 70 | 1016.9 |
| 20260903181212 | 69 | 196 | 1.0 | 4.0 | 0.00 | 0.00 | 0.00 | 67 | 1017.6 |
| 20260903180003 | 70 | 202 | 0.0 | 2.0 | 0.00 | 0.00 | 0.00 | 68 | 1017.2 |
| 20260903175003 | 70 | 202 | 1.0 | 3.0 | 0.00 | 0.00 | 0.00 | 68 | 1017.6 |
| 20260903174003 | 70 | 198 | 1.0 | 4.0 | 0.00 | 0.00 | 0.00 | 69 | 1017.6 |
| 20260903173003 | 70 | 170 | 1.0 | 3.0 | 0.00 | 0.00 | 0.00 | 68 | 1017.6 |
| 20260903172003 | 70 | 195 | 1.0 | 3.0 | 0.00 | 0.00 | 0.00 | 71 | 1017.6 |
| 20260903171214 | 69 | 204 | 1.0 | 7.0 | 0.00 | 0.00 | 0.00 | 72 | 1017.9 |
| 20260903170003 | 69 | 185 | 1.0 | 4.0 | 0.00 | 0.00 | 0.00 | 71 | 1017.9 |
| 20260903165214 | 70 | 149 | 1.0 | 3.0 | 0.00 | 0.00 | 0.00 | 71 | 1017.6 |
| 20260903164003 | 70 | 161 | 1.0 | 3.0 | 0.00 | 0.00 | 0.00 | 70 | 1017.6 |
| 20260903163214 | 70 | 181 | 1.0 | 4.0 | 0.00 | 0.00 | 0.00 | 69 | 1017.9 |
| 20260903162003 | 70 | 190 | 1.0 | 7.0 | 0.00 | 0.00 | 0.00 | 69 | 1017.6 |
| 20260903161003 | 70 | 172 | 1.0 | 3.0 | 0.00 | 0.00 | 0.00 | 71 | 1017.9 |
| 20260903160214 | 70 | 168 | 1.0 | 3.0 | 0.00 | 0.00 | 0.00 | 70 | 1017.9 |
| 20260903155003 | 70 | 182 | 1.0 | 6.0 | 0.00 | 0.00 | 0.00 | 68 | 1017.9 |
| 20260903154214 | 70 | 192 | 1.0 | 6.0 | 0.00 | 0.00 | 0.00 | 70 | 1017.9 |
| 20260903153003 | 71 | 143 | 1.0 | 3.0 | 0.00 | 0.00 | 0.00 | 71 | 1017.9 |
| 20260903152003 | 70 | 185 | 1.0 | 4.0 | 0.00 | 0.00 | 0.00 | 72 | 1018.2 |
| 20260903151003 | 70 | 187 | 2.0 | 6.0 | 0.00 | 0.00 | 0.00 | 71 | 1018.2 |
| 20260903150003 | 70 | 149 | 1.0 | 6.0 | 0.00 | 0.00 | 0.00 | 70 | 1017.9 |
| 20260903145003 | 68 | 187 | 1.0 | 4.0 | 0.00 | 0.00 | 0.00 | 73 | 1018.2 |
| 20260903144003 | 68 | 171 | 1.0 | 4.0 | 0.00 | 0.00 | 0.00 | 73 | 1018.2 |
| 20260903143004 | 69 | 190 | 1.0 | 7.0 | 0.00 | 0.00 | 0.00 | 73 | 1018.2 |
| 20260903142003 | 70 | 194 | 1.0 | 3.0 | 0.00 | 0.00 | 0.00 | 70 | 1018.2 |
| 20260903141003 | 70 | 192 | 1.0 | 6.0 | 0.00 | 0.00 | 0.00 | 72 | 1018.2 |
| 20260903140003 | 69 | 199 | 1.0 | 4.0 | 0.00 | 0.00 | 0.00 | 73 | 1018.2 |
| 20260903135213 | 70 | 194 | 1.0 | 4.0 | 0.00 | 0.00 | 0.00 | 71 | 1018.6 |
| 20260903134003 | 70 | 192 | 1.0 | 4.0 | 0.00 | 0.00 | 0.00 | 71 | 1018.6 |
| 20260903133003 | 69 | 179 | 1.0 | 3.0 | 0.00 | 0.00 | 0.00 | 74 | 1018.9 |
| 20260903132003 | 68 | 207 | 1.0 | 4.0 | 0.00 | 0.00 | 0.00 | 75 | 1018.6 |
| 20260903131213 | 68 | 199 | 1.0 | 3.0 | 0.00 | 0.00 | 0.00 | 76 | 1018.9 |
| 20260903130004 | 70 | 237 | 0.0 | 2.0 | 0.00 | 0.00 | 0.00 | 76 | 1018.9 |
| 20260903125003 | 68 | 154 | 1.0 | 4.0 | 0.00 | 0.00 | 0.00 | 81 | 1018.9 |
| 20260903124003 | 67 | 167 | 1.0 | 2.0 | 0.00 | 0.00 | 0.00 | 83 | 1018.9 |
| 20260903123003 | 66 | 138 | 0.0 | 2.0 | 0.00 | 0.00 | 0.00 | 85 | 1018.9 |
| 20260903122003 | 64 | 128 | 1.0 | 3.0 | 0.00 | 0.00 | 0.00 | 89 | 1018.9 |
| 20260903121003 | 64 | 219 | 0.0 | 3.0 | 0.00 | 0.00 | 0.00 | 92 | 1018.9 |
| 20260903120003 | 63 | 220 | 0.0 | 2.0 | 0.00 | 0.00 | 0.00 | 95 | 1019.3 |
| 20260903115003 | 61 | 1 | 0.0 | 1.0 | 0.00 | 0.00 | 0.00 | 99 | 1019.3 |
| 20260903114003 | 61 | 2 | 0.0 | 1.0 | 0.00 | 0.00 | 0.00 | 99 | 1019.6 |
| 20260903113214 | 60 | 1 | 0.0 | 1.0 | 0.00 | 0.00 | 0.00 | 99 | 1019.3 |
| 20260903112003 | 60 | 54 | 0.0 | 1.0 | 0.00 | 0.00 | 0.00 | 99 | 1019.3 |
| 20260903111214 | 60 | 49 | 0.0 | 1.0 | 0.00 | 0.00 | 0.00 | 99 | 1019.3 |
| 20260903110003 | 60 | 44 | 0.0 | 1.0 | 0.00 | 0.00 | 0.00 | 99 | 1019.3 |
| 20260903105003 | 60 | 42 | 0.0 | 2.0 | 0.00 | 0.00 | 0.00 | 99 | 1019.3 |
| 20260903104004 | 59 | 0 | 0.0 | 0.0 | 0.00 | 0.00 | 0.00 | 99 | 1019.3 |
| 20260903103214 | 58 | 0 | 0.0 | 0.0 | 0.00 | 0.00 | 0.00 | 99 | 1019.3 |
| 20260903102003 | 57 | 0 | 0.0 | 0.0 | 0.00 | 0.00 | 0.00 | 99 | 1019.3 |
| 20260903101213 | 57 | 0 | 0.0 | 0.0 | 0.00 | 0.00 | 0.00 | 99 | 1019.3 |
| 20260903100213 | 57 | 0 | 0.0 | 0.0 | 0.00 | 0.00 | 0.00 | 99 | 1019.3 |
| 20260903095003 | 57 | 0 | 0.0 | 0.0 | 0.00 | 0.00 | 0.00 | 99 | 1019.3 |
| 20260903094003 | 56 | 0 | 0.0 | 0.0 | 0.00 | 0.00 | 0.00 | 99 | 1019.3 |
| 20260903093003 | 56 | 0 | 0.0 | 0.0 | 0.00 | 0.00 | 0.00 | 99 | 1019.3 |
| 20260903092003 | 56 | 0 | 0.0 | 0.0 | 0.00 | 0.00 | 0.00 | 99 | 1019.3 |
| 20260903091003 | 55 | 0 | 0.0 | 0.0 | 0.00 | 0.00 | 0.00 | 99 | 1019.3 |
| 20260903090003 | 55 | 0 | 0.0 | 0.0 | 0.00 | 0.00 | 0.00 | 99 | 1019.3 |
| 20260903085003 | 55 | 0 | 0.0 | 0.0 | 0.00 | 0.00 | 0.00 | 99 | 1019.3 |
| 20260903084004 | 55 | 0 | 0.0 | 0.0 | 0.00 | 0.00 | 0.00 | 99 | 1019.6 |
| 20260903083004 | 56 | 0 | 0.0 | 0.0 | 0.00 | 0.00 | 0.00 | 99 | 1019.6 |
| 20260903082003 | 56 | 6 | 0.0 | 1.0 | 0.00 | 0.00 | 0.00 | 99 | 1019.3 |
| 20260903081213 | 56 | 0 | 0.0 | 0.0 | 0.00 | 0.00 | 0.00 | 99 | 1019.6 |
| 20260903080003 | 56 | 0 | 0.0 | 0.0 | 0.00 | 0.00 | 0.00 | 99 | 1019.6 |
| 20260903075003 | 56 | 0 | 0.0 | 0.0 | 0.00 | 0.00 | 0.00 | 99 | 1019.6 |